MET'MAP v2.0
soon released !

Expected late october,
this new version will be
more efficient, smarter,
and hosted on a brand new
server x3 powerfull...
...and still free !


Not compatible ?
Try the mobile version !

LOG IN : | Subscribe | Disclaimer | Who is Orbifly ? |
ICAO code :

TAF - EPSN Swidwin - 25 Feb 2020 01:26 UTC - Data Source NOAA   


- Airport Elevation : 385 ft
- No reported NOTAMs.


EPSN - Swidwin

NO METAR
TAF TAF EPSN
Valid from the 25 at 00:00 until the 25 at 09:00 UTC


242300Z 2500/2509 14010KT 9999 BKN007 BKN012
TEMPO 2500/2504 4000 RA BKN005
BECMG 2504/2506 21014KT
TEMPO 2504/2509 21018G30KT 6000 SHRA SCT005 BKN015CB
BECMG 2506/2509 BKN017

Source NOAA


MET'MAP, your aeronautical weather chart ! - Copyright ORBIFLY December 2007

Programming & Development : Alexandra Zaïnal
Co-Developer : Marc-Olivier Méhu
Technical & hardware support : Manuel Goepfert
Concept & Financing : Baudouin d'Aumeries